Terminal Aerodrome Forecast
Issued by NWS

Home | Current Version | Previous Version | Text Only | Print | Product List | Glossary On
Versions: 1 2 3 4 5 6 7 8 9 10 11 12 13 14
000
FTAK31 PAJN 310522
TAFAWG
TAF
PAWG 310522Z 3106/0106 VRB03KT P6SM FEW025 OVC050
     FM310800 VRB03KT P6SM FEW015 BKN025 OVC035
     FM311100 VRB03KT P6SM FEW005 BKN015 OVC025
     FM311800 31005KT P6SM SCT015 BKN025 OVC035
     FM312200 31007KT P6SM SCT025 BKN040
      AMD LTD TO CLD VIS AND WIND 3106/3115=

USA.gov is the U.S. government's official web portal to all federal, state and local government web resources and services.